createdAt,value
2024-04-24T00:01:35.934Z,11.16
2024-04-24T00:04:36.903Z,11.21
2024-04-24T00:07:37.902Z,11.25
2024-04-24T00:10:38.943Z,11.25
2024-04-24T00:13:39.932Z,11.24
2024-04-24T00:16:41.927Z,11.23
2024-04-24T00:19:42.922Z,11.24
2024-04-24T00:22:43.970Z,11.23
2024-04-24T00:25:44.951Z,11.22
2024-04-24T00:28:46.010Z,11.22
2024-04-24T00:31:46.999Z,11.22
2024-04-24T00:34:48.050Z,11.22
2024-04-24T00:37:48.993Z,11.21
2024-04-24T00:40:53.033Z,11.20
2024-04-24T00:43:54.045Z,11.20
2024-04-24T00:46:57.993Z,11.22
2024-04-24T00:50:00.040Z,11.22
2024-04-24T00:53:01.022Z,11.23
2024-04-24T00:56:02.054Z,11.22
2024-04-24T00:59:03.071Z,11.22
2024-04-24T01:02:04.078Z,11.24
2024-04-24T01:05:05.064Z,11.24
2024-04-24T01:08:06.022Z,11.24
2024-04-24T01:11:11.073Z,11.25
2024-04-24T01:14:12.076Z,11.27
2024-04-24T01:17:18.190Z,11.27
2024-04-24T01:20:26.070Z,11.27
2024-04-24T01:24:01.066Z,11.26
2024-04-24T01:27:04.069Z,11.27
2024-04-24T01:30:05.070Z,11.26
2024-04-24T01:33:06.226Z,11.26
2024-04-24T01:36:07.210Z,11.25
2024-04-24T01:39:08.067Z,11.25
2024-04-24T01:42:09.108Z,11.27
2024-04-24T01:45:10.095Z,11.28
2024-04-24T01:48:11.207Z,11.29
2024-04-24T01:51:12.098Z,11.29
2024-04-24T01:54:13.140Z,11.30
2024-04-24T01:57:14.156Z,11.31
2024-04-24T02:00:15.110Z,11.30
2024-04-24T02:03:16.254Z,11.30
2024-04-24T02:06:17.136Z,11.31
2024-04-24T02:09:18.166Z,11.33
2024-04-24T02:12:19.300Z,11.33
2024-04-24T02:15:20.183Z,11.34
2024-04-24T02:18:21.269Z,11.34
2024-04-24T02:21:22.187Z,11.35
2024-04-24T02:24:44.193Z,11.37
2024-04-24T02:27:45.192Z,11.41
2024-04-24T02:30:46.178Z,11.42
2024-04-24T02:33:47.275Z,11.44
2024-04-24T02:36:48.200Z,11.44
2024-04-24T02:39:49.214Z,11.43
2024-04-24T02:42:44.246Z,11.43
2024-04-24T02:45:45.213Z,11.41
2024-04-24T02:48:46.333Z,11.40
2024-04-24T02:51:47.240Z,11.40
2024-04-24T02:54:48.259Z,11.40
2024-04-24T02:57:49.248Z,11.40
2024-04-24T03:00:50.319Z,11.40
2024-04-24T03:03:51.340Z,11.41
2024-04-24T03:06:56.286Z,11.41
2024-04-24T03:09:57.253Z,11.41
2024-04-24T03:12:58.306Z,11.39
2024-04-24T03:15:59.301Z,11.40
2024-04-24T03:19:00.347Z,11.41
2024-04-24T03:22:01.287Z,11.43
2024-04-24T03:25:03.327Z,11.45
2024-04-24T03:28:04.324Z,11.48
2024-04-24T03:31:05.316Z,11.51
2024-04-24T03:34:06.346Z,11.54
2024-04-24T03:37:07.344Z,11.55
2024-04-24T03:40:08.357Z,11.57
2024-04-24T03:43:09.342Z,11.60
2024-04-24T03:46:10.353Z,11.61
2024-04-24T03:49:11.368Z,11.61
2024-04-24T03:52:12.436Z,11.62
2024-04-24T03:55:13.365Z,11.63
2024-04-24T03:58:14.384Z,11.64
2024-04-24T04:01:15.444Z,11.61
2024-04-24T04:04:16.471Z,11.60
2024-04-24T04:07:17.422Z,11.57
2024-04-24T04:10:18.420Z,11.56
2024-04-24T04:13:19.412Z,11.55
2024-04-24T04:16:20.396Z,11.52
2024-04-24T04:19:21.435Z,11.51
2024-04-24T04:22:23.399Z,11.51
2024-04-24T04:25:24.433Z,11.51
2024-04-24T04:28:25.440Z,11.51
2024-04-24T04:31:26.465Z,11.50
2024-04-24T04:34:27.441Z,11.47
2024-04-24T04:37:28.470Z,11.43
2024-04-24T04:40:29.478Z,11.38
2024-04-24T04:43:30.482Z,11.33
2024-04-24T04:46:31.490Z,11.27
2024-04-24T04:49:32.518Z,11.20
2024-04-24T04:52:33.502Z,11.15
2024-04-24T04:55:34.495Z,11.11
2024-04-24T04:58:35.516Z,11.08
2024-04-24T05:01:36.537Z,11.05
2024-04-24T05:04:37.572Z,11.01
2024-04-24T05:07:38.482Z,11.00
2024-04-24T05:10:40.586Z,10.99
2024-04-24T05:13:41.515Z,10.96
2024-04-24T05:16:42.551Z,10.96
2024-04-24T05:19:43.751Z,10.98
2024-04-24T05:22:54.626Z,11.00
2024-04-24T05:25:59.566Z,11.02
2024-04-24T05:29:14.677Z,11.04
2024-04-24T05:32:15.611Z,11.02
2024-04-24T05:35:16.621Z,10.97
2024-04-24T05:38:17.643Z,10.95
2024-04-24T05:41:18.621Z,10.93
2024-04-24T05:44:19.692Z,10.92
2024-04-24T05:47:20.654Z,10.88
2024-04-24T05:50:21.767Z,10.87
2024-04-24T05:53:22.711Z,10.87
2024-04-24T05:56:23.644Z,10.88
2024-04-24T05:59:24.768Z,10.89
2024-04-24T06:02:25.673Z,10.91
2024-04-24T06:05:26.729Z,10.94
2024-04-24T06:08:27.676Z,10.96
2024-04-24T06:11:28.687Z,11.00
2024-04-24T06:14:29.685Z,11.05
2024-04-24T06:17:30.776Z,11.08
2024-04-24T06:20:31.760Z,11.12
2024-04-24T06:23:32.780Z,11.15
2024-04-24T06:26:33.677Z,11.17
2024-04-24T06:29:34.714Z,11.18
2024-04-24T06:32:35.751Z,11.19
2024-04-24T06:35:36.816Z,11.18
2024-04-24T06:38:37.694Z,11.20
2024-04-24T06:41:38.759Z,11.20
2024-04-24T06:44:39.694Z,11.22
2024-04-24T06:47:40.799Z,11.23
2024-04-24T06:50:42.750Z,11.22
2024-04-24T06:53:46.752Z,11.22
2024-04-24T06:56:47.765Z,11.24
2024-04-24T06:59:48.808Z,11.27
2024-04-24T07:02:49.792Z,11.30
2024-04-24T07:05:50.764Z,11.32
2024-04-24T07:08:51.784Z,11.34
2024-04-24T07:11:52.948Z,11.36
2024-04-24T07:14:53.849Z,11.38
2024-04-24T07:17:55.148Z,11.40
2024-04-24T07:20:55.813Z,11.37
2024-04-24T07:23:56.836Z,11.35
2024-04-24T07:26:57.806Z,11.37
2024-04-24T07:29:58.841Z,11.36
2024-04-24T07:32:59.864Z,11.39
2024-04-24T07:36:02.204Z,11.40
2024-04-24T07:39:03.842Z,11.38
2024-04-24T07:42:04.857Z,11.36
2024-04-24T07:45:05.863Z,11.34
2024-04-24T07:48:07.049Z,11.37
2024-04-24T07:51:07.872Z,11.43
2024-04-24T07:54:08.877Z,11.49
2024-04-24T07:57:09.859Z,11.52
2024-04-24T08:00:10.878Z,11.59
2024-04-24T08:03:11.948Z,11.67
2024-04-24T08:06:13.932Z,11.73
2024-04-24T08:09:14.910Z,11.77
2024-04-24T08:12:17.047Z,11.80
2024-04-24T08:15:17.916Z,11.83
2024-04-24T08:18:19.022Z,11.83
2024-04-24T08:21:19.949Z,11.85
2024-04-24T08:24:20.984Z,11.85
2024-04-24T08:27:21.985Z,11.85
2024-04-24T08:30:23.016Z,11.85
2024-04-24T08:33:24.049Z,11.87
2024-04-24T08:36:25.964Z,11.93
2024-04-24T08:39:26.980Z,12.02
2024-04-24T08:42:27.934Z,12.12
2024-04-24T08:45:29.985Z,12.19
2024-04-24T08:48:31.076Z,12.25
2024-04-24T08:51:32.039Z,12.36
2024-04-24T08:54:32.971Z,12.53
2024-04-24T08:57:34.015Z,12.69
2024-04-24T09:00:37.111Z,12.83
2024-04-24T09:04:13.148Z,12.97
2024-04-24T09:07:15.091Z,13.11
2024-04-24T09:10:16.039Z,13.23
2024-04-24T09:13:17.066Z,13.35
2024-04-24T09:16:23.113Z,13.49
2024-04-24T09:19:24.085Z,13.66
2024-04-24T09:22:25.043Z,13.82
2024-04-24T09:25:26.068Z,13.98
2024-04-24T09:28:27.110Z,14.14
2024-04-24T09:31:28.052Z,14.32
2024-04-24T09:34:29.148Z,14.51
2024-04-24T09:37:30.093Z,14.69
2024-04-24T09:40:31.133Z,14.87
2024-04-24T09:43:32.141Z,15.02
2024-04-24T09:46:33.144Z,15.15
2024-04-24T09:49:35.135Z,15.31
2024-04-24T09:52:36.111Z,15.50
2024-04-24T09:55:40.155Z,15.67
2024-04-24T09:58:42.247Z,15.78
2024-04-24T10:01:46.120Z,15.90
2024-04-24T10:04:48.205Z,16.02
2024-04-24T10:07:56.214Z,16.15
2024-04-24T10:11:03.222Z,16.29
2024-04-24T10:14:05.210Z,16.40
2024-04-24T10:17:07.250Z,16.50
2024-04-24T10:20:19.041Z,16.52
2024-04-24T10:23:24.549Z,16.45
2024-04-24T10:26:26.222Z,16.42
2024-04-24T10:29:27.278Z,16.45
2024-04-24T10:32:33.369Z,16.58
2024-04-24T10:35:35.248Z,16.80
2024-04-24T10:38:39.500Z,17.03
2024-04-24T10:41:40.271Z,17.21
2024-04-24T10:44:41.213Z,17.36
2024-04-24T10:47:42.338Z,17.45
2024-04-24T10:50:43.486Z,17.52
2024-04-24T10:53:51.922Z,17.59
2024-04-24T10:56:59.289Z,17.68
2024-04-24T11:00:00.356Z,17.71
2024-04-24T11:03:13.396Z,17.69
2024-04-24T11:06:23.325Z,17.76
2024-04-24T11:09:24.299Z,17.87
2024-04-24T11:12:26.281Z,17.94
2024-04-24T11:15:37.344Z,17.97
2024-04-24T11:18:38.344Z,17.97
2024-04-24T11:21:40.346Z,17.91
2024-04-24T11:24:45.358Z,17.81
2024-04-24T11:27:46.339Z,17.75
2024-04-24T11:30:47.311Z,17.76
2024-04-24T11:33:50.524Z,17.89
2024-04-24T11:36:53.324Z,18.02
2024-04-24T11:39:54.392Z,18.10
2024-04-24T11:42:56.409Z,18.20
2024-04-24T11:45:57.434Z,18.36
2024-04-24T11:48:58.416Z,18.52
2024-04-24T11:52:00.355Z,18.63
2024-04-24T11:55:06.404Z,18.68
2024-04-24T11:58:07.370Z,18.76
2024-04-24T12:01:08.442Z,18.88
2024-04-24T12:04:09.468Z,18.96
2024-04-24T12:07:10.471Z,18.98
2024-04-24T12:10:14.410Z,18.94
2024-04-24T12:13:17.436Z,18.90
2024-04-24T12:16:18.521Z,18.92
2024-04-24T12:19:19.476Z,19.00
2024-04-24T12:22:20.476Z,19.03
2024-04-24T12:25:21.480Z,18.96
2024-04-24T12:28:22.499Z,18.93
2024-04-24T12:31:23.474Z,19.00
2024-04-24T12:34:26.540Z,19.12
2024-04-24T12:37:27.450Z,19.25
2024-04-24T12:40:28.505Z,19.36
2024-04-24T12:43:29.509Z,19.39
2024-04-24T12:46:30.496Z,19.39
2024-04-24T12:49:31.490Z,19.36
2024-04-24T12:52:32.637Z,19.36
2024-04-24T12:55:33.565Z,19.35
2024-04-24T12:58:35.795Z,19.33
2024-04-24T13:01:37.610Z,19.30
2024-04-24T13:04:38.562Z,19.29
2024-04-24T13:07:39.522Z,19.29
2024-04-24T13:10:40.676Z,19.30
2024-04-24T13:13:41.602Z,19.31
2024-04-24T13:16:42.577Z,19.31
2024-04-24T13:19:43.649Z,19.31
2024-04-24T13:22:44.574Z,19.30
2024-04-24T13:25:45.654Z,19.29
2024-04-24T13:28:54.645Z,19.30
2024-04-24T13:31:55.659Z,19.32
2024-04-24T13:34:56.654Z,19.32
2024-04-24T13:37:57.769Z,19.32
2024-04-24T13:40:58.668Z,19.27
2024-04-24T13:43:59.679Z,19.21
2024-04-24T13:47:00.721Z,19.15
2024-04-24T13:50:01.772Z,19.09
2024-04-24T13:53:02.713Z,19.04
2024-04-24T13:56:03.675Z,18.99
2024-04-24T13:59:04.727Z,18.95
2024-04-24T14:02:05.685Z,18.94
2024-04-24T14:05:06.786Z,18.96
2024-04-24T14:08:07.749Z,18.97
2024-04-24T14:11:08.788Z,18.97
2024-04-24T14:14:09.749Z,18.96
2024-04-24T14:17:10.716Z,18.97
2024-04-24T14:20:11.721Z,18.99
2024-04-24T14:23:12.757Z,18.99
2024-04-24T14:26:13.760Z,18.99
2024-04-24T14:29:14.962Z,18.98
2024-04-24T14:32:15.779Z,18.96
2024-04-24T14:35:19.763Z,18.94
2024-04-24T14:38:20.779Z,18.89
2024-04-24T14:41:21.765Z,18.82
2024-04-24T14:44:22.764Z,18.74
2024-04-24T14:47:26.826Z,18.67
2024-04-24T14:50:27.879Z,18.65
2024-04-24T14:53:28.790Z,18.63
2024-04-24T14:56:30.068Z,18.61
2024-04-24T14:59:31.310Z,18.57
2024-04-24T15:02:31.866Z,18.53
2024-04-24T15:05:32.847Z,18.51
2024-04-24T15:08:27.047Z,18.50
2024-04-24T15:11:27.873Z,18.47
2024-04-24T15:14:31.082Z,18.42
2024-04-24T15:17:31.984Z,18.37
2024-04-24T15:20:32.860Z,18.31
2024-04-24T15:23:33.945Z,18.26
2024-04-24T15:26:34.875Z,18.22
2024-04-24T15:29:35.908Z,18.17
2024-04-24T15:32:37.092Z,18.13
2024-04-24T15:35:37.955Z,18.10
2024-04-24T15:38:38.872Z,18.07
2024-04-24T15:41:39.955Z,18.02
2024-04-24T15:44:41.946Z,17.99
2024-04-24T15:47:43.009Z,17.96
2024-04-24T15:50:43.926Z,17.93
2024-04-24T15:53:44.953Z,17.88
2024-04-24T15:56:45.915Z,17.83
2024-04-24T15:59:46.921Z,17.78
2024-04-24T16:02:47.984Z,17.74
2024-04-24T16:05:48.962Z,17.69
2024-04-24T16:08:49.963Z,17.65
2024-04-24T16:11:51.069Z,17.60
2024-04-24T16:14:51.981Z,17.54
2024-04-24T16:17:54.170Z,17.49
2024-04-24T16:20:54.976Z,17.44
2024-04-24T16:23:56.020Z,17.40
2024-04-24T16:26:57.025Z,17.37
2024-04-24T16:29:58.183Z,17.32
2024-04-24T16:32:59.217Z,17.26
2024-04-24T16:36:00.020Z,17.21
2024-04-24T16:39:00.984Z,17.18
2024-04-24T16:42:02.024Z,17.16
2024-04-24T16:45:03.164Z,17.13
2024-04-24T16:48:04.193Z,17.10
2024-04-24T16:51:05.386Z,17.07
2024-04-24T16:54:07.159Z,17.04
2024-04-24T16:57:08.041Z,17.00
2024-04-24T17:00:09.080Z,16.96
2024-04-24T17:03:10.066Z,16.93
2024-04-24T17:06:11.116Z,16.92
2024-04-24T17:09:12.062Z,16.92
2024-04-24T17:12:14.086Z,16.91
2024-04-24T17:15:15.111Z,16.91
2024-04-24T17:18:17.326Z,16.91
2024-04-24T17:21:18.099Z,16.90
2024-04-24T17:24:28.110Z,16.89
2024-04-24T17:27:29.122Z,16.88
2024-04-24T17:30:30.132Z,16.87
2024-04-24T17:33:31.146Z,16.87
2024-04-24T17:36:32.114Z,16.86
2024-04-24T17:39:33.204Z,16.85
2024-04-24T17:42:34.247Z,16.85
2024-04-24T17:45:36.267Z,16.83
2024-04-24T17:48:37.254Z,16.84
2024-04-24T17:51:38.174Z,16.83
2024-04-24T17:54:39.185Z,16.82
2024-04-24T17:57:42.192Z,16.82
2024-04-24T18:00:45.249Z,16.80
2024-04-24T18:03:47.318Z,16.79
2024-04-24T18:06:48.265Z,16.77
2024-04-24T18:09:49.244Z,16.77
2024-04-24T18:12:52.235Z,16.75
2024-04-24T18:15:53.216Z,16.74
2024-04-24T18:18:54.337Z,16.73
2024-04-24T18:21:55.257Z,16.72
2024-04-24T18:24:56.251Z,16.71
2024-04-24T18:27:57.251Z,16.69
2024-04-24T18:30:58.379Z,16.66
2024-04-24T18:33:59.500Z,16.64
2024-04-24T18:37:01.383Z,16.60
2024-04-24T18:40:05.715Z,16.58
2024-04-24T18:43:08.519Z,16.56
2024-04-24T18:46:10.289Z,16.54
2024-04-24T18:49:11.317Z,16.54
2024-04-24T18:52:12.300Z,16.52
2024-04-24T18:55:13.383Z,16.53
2024-04-24T18:58:16.327Z,16.53
2024-04-24T19:01:18.378Z,16.52
2024-04-24T19:04:20.605Z,16.51
2024-04-24T19:07:24.790Z,16.49
2024-04-24T19:10:25.809Z,16.48
2024-04-24T19:13:26.434Z,16.48
2024-04-24T19:16:27.384Z,16.47
2024-04-24T19:19:28.356Z,16.46
2024-04-24T19:22:29.371Z,16.44
2024-04-24T19:25:30.413Z,16.43
2024-04-24T19:28:31.430Z,16.41
2024-04-24T19:31:33.531Z,16.38
2024-04-24T19:34:34.428Z,16.35
2024-04-24T19:37:36.381Z,16.32
2024-04-24T19:40:41.401Z,16.29
2024-04-24T19:43:37.423Z,16.26
2024-04-24T19:46:25.451Z,16.23
2024-04-24T19:49:26.438Z,16.21
2024-04-24T19:52:27.429Z,16.18
2024-04-24T19:55:28.454Z,16.16
2024-04-24T19:58:29.449Z,16.14
2024-04-24T20:01:30.485Z,16.13
2024-04-24T20:04:32.661Z,16.12
2024-04-24T20:07:33.494Z,16.11
2024-04-24T20:10:34.645Z,16.10
2024-04-24T20:13:35.537Z,16.09
2024-04-24T20:16:36.485Z,16.08
2024-04-24T20:19:37.497Z,16.07
2024-04-24T20:22:38.501Z,16.06
2024-04-24T20:25:39.497Z,16.06
2024-04-24T20:28:41.533Z,16.05
2024-04-24T20:31:42.514Z,16.05
2024-04-24T20:34:43.517Z,16.05
2024-04-24T20:37:44.523Z,16.06
2024-04-24T20:40:45.561Z,16.07
2024-04-24T20:43:46.533Z,16.08
2024-04-24T20:46:52.614Z,16.09
2024-04-24T20:49:53.552Z,16.09
2024-04-24T20:52:54.581Z,16.09
2024-04-24T20:55:56.580Z,16.07
2024-04-24T20:58:57.626Z,16.05
2024-04-24T21:01:58.598Z,16.03
2024-04-24T21:04:59.595Z,16.01
2024-04-24T21:08:01.641Z,15.99
2024-04-24T21:10:57.291Z,15.98
2024-04-24T21:13:57.651Z,15.98
2024-04-24T21:16:58.612Z,15.97
2024-04-24T21:19:59.649Z,15.98
2024-04-24T21:23:00.805Z,15.99
2024-04-24T21:26:01.796Z,15.99
2024-04-24T21:29:02.710Z,16.00
2024-04-24T21:32:03.784Z,16.01
2024-04-24T21:35:04.691Z,16.02
2024-04-24T21:38:05.671Z,16.02
2024-04-24T21:41:06.736Z,16.02
2024-04-24T21:44:07.685Z,16.02
2024-04-24T21:47:08.711Z,15.99
2024-04-24T21:50:09.732Z,15.97
2024-04-24T21:53:11.736Z,15.96
2024-04-24T21:56:12.722Z,15.95
2024-04-24T21:59:13.758Z,15.93
2024-04-24T22:02:14.721Z,15.91
2024-04-24T22:05:15.780Z,15.90
2024-04-24T22:08:16.738Z,15.89
2024-04-24T22:11:17.950Z,15.89
2024-04-24T22:14:18.772Z,15.87
2024-04-24T22:17:25.390Z,15.86
2024-04-24T22:20:29.824Z,15.85
2024-04-24T22:23:30.781Z,15.83
2024-04-24T22:26:33.764Z,15.83
2024-04-24T22:29:34.859Z,15.82
2024-04-24T22:32:35.824Z,15.80
2024-04-24T22:35:36.859Z,15.75
2024-04-24T22:38:38.841Z,15.71
2024-04-24T22:41:39.783Z,15.67
2024-04-24T22:44:40.865Z,15.62
2024-04-24T22:47:41.877Z,15.57
2024-04-24T22:50:42.916Z,15.53
2024-04-24T22:53:43.810Z,15.50
2024-04-24T22:56:46.822Z,15.48
2024-04-24T22:59:47.823Z,15.45
2024-04-24T23:02:41.920Z,15.43
2024-04-24T23:05:28.888Z,15.42
2024-04-24T23:08:30.921Z,15.40
2024-04-24T23:11:31.905Z,15.37
2024-04-24T23:14:32.946Z,15.35
2024-04-24T23:17:34.030Z,15.35
2024-04-24T23:20:37.502Z,15.33
2024-04-24T23:23:38.990Z,15.31
2024-04-24T23:26:39.943Z,15.30
2024-04-24T23:29:40.928Z,15.30
2024-04-24T23:32:42.016Z,15.28
2024-04-24T23:35:43.014Z,15.26
2024-04-24T23:38:43.940Z,15.25
2024-04-24T23:41:44.944Z,15.22
2024-04-24T23:44:39.115Z,15.21
2024-04-24T23:47:41.073Z,15.18
2024-04-24T23:50:42.006Z,15.15
2024-04-24T23:53:38.049Z,15.13
2024-04-24T23:56:25.989Z,15.12
2024-04-24T23:59:27.989Z,15.10
